sensor_id;sensor_type;location;lat;lon;timestamp;pressure;altitude;pressure_sealevel;temperature;humidity
64687;BME280;51113;53.646;-113.674;2022-09-24T00:02:19;92893.47;;;17.63;48.70
64687;BME280;51113;53.646;-113.674;2022-09-24T00:04:48;92895.75;;;17.70;48.75
64687;BME280;51113;53.646;-113.674;2022-09-24T00:07:16;92891.97;;;17.48;47.73
64687;BME280;51113;53.646;-113.674;2022-09-24T00:09:45;92891.97;;;17.48;48.41
64687;BME280;51113;53.646;-113.674;2022-09-24T00:12:13;92905.09;;;17.50;47.88
64687;BME280;51113;53.646;-113.674;2022-09-24T00:14:42;92901.97;;;17.56;47.58
64687;BME280;51113;53.646;-113.674;2022-09-24T00:17:11;92901.88;;;17.39;47.44
64687;BME280;51113;53.646;-113.674;2022-09-24T00:19:40;92914.28;;;17.13;48.61
64687;BME280;51113;53.646;-113.674;2022-09-24T00:22:09;92916.03;;;16.95;50.99
64687;BME280;51113;53.646;-113.674;2022-09-24T00:24:37;92911.63;;;16.63;51.88
64687;BME280;51113;53.646;-113.674;2022-09-24T00:27:24;92908.47;;;16.33;55.17
64687;BME280;51113;53.646;-113.674;2022-09-24T00:29:54;92912.03;;;16.01;55.52
64687;BME280;51113;53.646;-113.674;2022-09-24T00:32:23;92927.41;;;15.96;55.48
64687;BME280;51113;53.646;-113.674;2022-09-24T00:34:51;92931.69;;;15.97;55.83
64687;BME280;51113;53.646;-113.674;2022-09-24T00:37:21;92938.22;;;15.58;58.32
64687;BME280;51113;53.646;-113.674;2022-09-24T00:39:49;92941.78;;;15.35;59.36
64687;BME280;51113;53.646;-113.674;2022-09-24T00:42:18;92959.44;;;15.17;60.09
64687;BME280;51113;53.646;-113.674;2022-09-24T00:44:52;92974.91;;;15.01;61.31
64687;BME280;51113;53.646;-113.674;2022-09-24T00:52:39;92970.50;;;13.43;73.49
64687;BME280;51113;53.646;-113.674;2022-09-24T00:55:10;92965.13;;;13.09;75.85
64687;BME280;51113;53.646;-113.674;2022-09-24T00:57:44;92967.72;;;12.75;79.76
64687;BME280;51113;53.646;-113.674;2022-09-24T01:00:13;92908.91;;;13.40;73.90
64687;BME280;51113;53.646;-113.674;2022-09-24T01:02:44;92898.44;;;13.48;73.87
64687;BME280;51113;53.646;-113.674;2022-09-24T01:05:14;92919.47;;;13.21;76.31
64687;BME280;51113;53.646;-113.674;2022-09-24T01:07:43;92910.75;;;13.44;74.06
64687;BME280;51113;53.646;-113.674;2022-09-24T01:10:16;92912.00;;;13.52;73.94
64687;BME280;51113;53.646;-113.674;2022-09-24T01:16:03;92909.16;;;13.43;77.48
64687;BME280;51113;53.646;-113.674;2022-09-24T01:19:01;92916.81;;;13.21;80.19
64687;BME280;51113;53.646;-113.674;2022-09-24T01:21:43;92919.19;;;13.23;81.19
64687;BME280;51113;53.646;-113.674;2022-09-24T01:30:03;92921.69;;;13.09;83.54
64687;BME280;51113;53.646;-113.674;2022-09-24T01:32:47;92930.78;;;13.03;84.13
64687;BME280;51113;53.646;-113.674;2022-09-24T01:37:58;92930.00;;;13.02;83.91
64687;BME280;51113;53.646;-113.674;2022-09-24T01:40:29;92942.25;;;12.98;85.28
64687;BME280;51113;53.646;-113.674;2022-09-24T01:42:59;92937.47;;;12.95;84.34
64687;BME280;51113;53.646;-113.674;2022-09-24T01:45:30;92955.09;;;12.91;83.65
64687;BME280;51113;53.646;-113.674;2022-09-24T01:48:00;92957.47;;;12.93;83.36
64687;BME280;51113;53.646;-113.674;2022-09-24T01:50:33;92972.72;;;12.87;83.60
64687;BME280;51113;53.646;-113.674;2022-09-24T01:53:26;92975.47;;;12.72;85.62
64687;BME280;51113;53.646;-113.674;2022-09-24T01:56:07;92986.00;;;12.38;88.42
64687;BME280;51113;53.646;-113.674;2022-09-24T02:01:28;92983.72;;;12.01;90.67
64687;BME280;51113;53.646;-113.674;2022-09-24T02:04:07;92969.03;;;12.18;89.69
64687;BME280;51113;53.646;-113.674;2022-09-24T02:06:48;92967.66;;;12.31;89.69
64687;BME280;51113;53.646;-113.674;2022-09-24T02:12:23;92961.31;;;12.22;89.50
64687;BME280;51113;53.646;-113.674;2022-09-24T02:14:53;92973.88;;;12.01;90.42
64687;BME280;51113;53.646;-113.674;2022-09-24T02:17:27;92974.72;;;11.91;90.88
64687;BME280;51113;53.646;-113.674;2022-09-24T02:20:00;92977.63;;;11.95;90.38
64687;BME280;51113;53.646;-113.674;2022-09-24T02:22:30;92986.69;;;11.84;90.40
64687;BME280;51113;53.646;-113.674;2022-09-24T02:25:01;92977.66;;;11.80;89.80
64687;BME280;51113;53.646;-113.674;2022-09-24T02:27:32;92979.50;;;11.74;90.79
64687;BME280;51113;53.646;-113.674;2022-09-24T02:30:00;92989.91;;;11.60;91.43
64687;BME280;51113;53.646;-113.674;2022-09-24T02:32:31;92989.09;;;11.45;92.83
64687;BME280;51113;53.646;-113.674;2022-09-24T02:35:04;92992.84;;;11.39;92.83
64687;BME280;51113;53.646;-113.674;2022-09-24T02:37:41;92996.03;;;11.41;91.67
64687;BME280;51113;53.646;-113.674;2022-09-24T02:40:13;92993.63;;;11.34;91.45
64687;BME280;51113;53.646;-113.674;2022-09-24T02:42:42;92987.78;;;11.32;91.63
64687;BME280;51113;53.646;-113.674;2022-09-24T02:45:11;92999.75;;;11.30;91.53
64687;BME280;51113;53.646;-113.674;2022-09-24T02:47:41;92993.09;;;11.22;92.12
64687;BME280;51113;53.646;-113.674;2022-09-24T02:50:10;92994.94;;;11.16;93.22
64687;BME280;51113;53.646;-113.674;2022-09-24T02:52:38;92986.44;;;11.14;93.06
64687;BME280;51113;53.646;-113.674;2022-09-24T02:55:07;92995.22;;;11.10;92.37
64687;BME280;51113;53.646;-113.674;2022-09-24T02:57:36;92990.94;;;11.04;91.95
64687;BME280;51113;53.646;-113.674;2022-09-24T03:00:05;92992.81;;;11.08;91.07
64687;BME280;51113;53.646;-113.674;2022-09-24T03:02:33;92992.03;;;11.08;89.98
64687;BME280;51113;53.646;-113.674;2022-09-24T03:05:02;92991.72;;;10.89;91.03
64687;BME280;51113;53.646;-113.674;2022-09-24T03:07:31;93001.56;;;10.88;91.41
64687;BME280;51113;53.646;-113.674;2022-09-24T03:09:59;93004.47;;;10.92;90.88
64687;BME280;51113;53.646;-113.674;2022-09-24T03:12:28;92998.34;;;10.81;89.94
64687;BME280;51113;53.646;-113.674;2022-09-24T03:14:56;92995.69;;;10.76;90.16
64687;BME280;51113;53.646;-113.674;2022-09-24T03:17:26;93000.19;;;10.76;90.38
64687;BME280;51113;53.646;-113.674;2022-09-24T03:19:55;92993.03;;;10.71;89.87
64687;BME280;51113;53.646;-113.674;2022-09-24T03:22:23;92997.75;;;10.54;90.63
64687;BME280;51113;53.646;-113.674;2022-09-24T03:24:52;92996.69;;;10.50;91.20
64687;BME280;51113;53.646;-113.674;2022-09-24T03:27:20;92996.84;;;10.33;92.26
64687;BME280;51113;53.646;-113.674;2022-09-24T03:29:49;93002.75;;;10.40;91.71
64687;BME280;51113;53.646;-113.674;2022-09-24T03:32:36;93005.94;;;10.42;92.42
64687;BME280;51113;53.646;-113.674;2022-09-24T03:35:05;93001.44;;;10.48;91.31
64687;BME280;51113;53.646;-113.674;2022-09-24T03:37:36;93007.31;;;10.55;91.65
64687;BME280;51113;53.646;-113.674;2022-09-24T03:40:04;93008.69;;;10.68;90.26
64687;BME280;51113;53.646;-113.674;2022-09-24T03:42:34;93011.06;;;10.69;89.88
64687;BME280;51113;53.646;-113.674;2022-09-24T03:45:03;93004.94;;;10.63;89.66
64687;BME280;51113;53.646;-113.674;2022-09-24T03:47:32;93013.19;;;10.62;89.23
64687;BME280;51113;53.646;-113.674;2022-09-24T03:50:01;93009.72;;;10.61;88.85
64687;BME280;51113;53.646;-113.674;2022-09-24T03:52:29;93020.34;;;10.61;88.83
64687;BME280;51113;53.646;-113.674;2022-09-24T03:54:58;93019.78;;;10.49;89.55
64687;BME280;51113;53.646;-113.674;2022-09-24T03:57:26;93022.16;;;10.51;88.44
64687;BME280;51113;53.646;-113.674;2022-09-24T03:59:55;93025.06;;;10.44;89.17
64687;BME280;51113;53.646;-113.674;2022-09-24T04:02:25;93026.06;;;10.38;88.80
64687;BME280;51113;53.646;-113.674;2022-09-24T04:04:54;93030.31;;;10.39;89.58
64687;BME280;51113;53.646;-113.674;2022-09-24T04:07:23;93028.72;;;10.38;88.89
64687;BME280;51113;53.646;-113.674;2022-09-24T04:09:51;93032.41;;;10.32;90.17
64687;BME280;51113;53.646;-113.674;2022-09-24T04:12:19;93033.47;;;10.31;89.19
64687;BME280;51113;53.646;-113.674;2022-09-24T04:14:48;93037.19;;;10.30;89.09
64687;BME280;51113;53.646;-113.674;2022-09-24T04:17:17;93035.34;;;10.36;88.75
64687;BME280;51113;53.646;-113.674;2022-09-24T04:19:46;93033.03;;;10.44;88.56
64687;BME280;51113;53.646;-113.674;2022-09-24T04:22:14;93035.97;;;10.48;87.43
64687;BME280;51113;53.646;-113.674;2022-09-24T04:24:43;93042.59;;;10.45;86.74
64687;BME280;51113;53.646;-113.674;2022-09-24T04:27:12;93042.63;;;10.50;87.38
64687;BME280;51113;53.646;-113.674;2022-09-24T04:29:40;93052.16;;;10.46;87.01
64687;BME280;51113;53.646;-113.674;2022-09-24T04:32:09;93050.31;;;10.52;87.32
64687;BME280;51113;53.646;-113.674;2022-09-24T04:34:37;93050.06;;;10.53;87.57
64687;BME280;51113;53.646;-113.674;2022-09-24T04:37:06;93045.81;;;10.57;87.41
64687;BME280;51113;53.646;-113.674;2022-09-24T04:39:36;93051.94;;;10.58;87.07
64687;BME280;51113;53.646;-113.674;2022-09-24T04:42:05;93053.53;;;10.59;87.51
64687;BME280;51113;53.646;-113.674;2022-09-24T04:44:33;93061.25;;;10.60;87.39
64687;BME280;51113;53.646;-113.674;2022-09-24T04:47:02;93058.31;;;10.62;87.43
64687;BME280;51113;53.646;-113.674;2022-09-24T04:49:30;93060.19;;;10.67;87.58
64687;BME280;51113;53.646;-113.674;2022-09-24T04:52:00;93058.84;;;10.64;87.99
64687;BME280;51113;53.646;-113.674;2022-09-24T04:54:29;93064.16;;;10.59;87.33
64687;BME280;51113;53.646;-113.674;2022-09-24T04:56:59;93061.25;;;10.60;86.92
64687;BME280;51113;53.646;-113.674;2022-09-24T04:59:27;93065.50;;;10.67;86.33
64687;BME280;51113;53.646;-113.674;2022-09-24T05:01:56;93067.09;;;10.68;87.08
64687;BME280;51113;53.646;-113.674;2022-09-24T05:04:24;93068.97;;;10.67;87.20
64687;BME280;51113;53.646;-113.674;2022-09-24T05:06:53;93073.50;;;10.72;86.53
64687;BME280;51113;53.646;-113.674;2022-09-24T05:09:21;93069.50;;;10.69;87.60
64687;BME280;51113;53.646;-113.674;2022-09-24T05:11:50;93076.94;;;10.67;86.60
64687;BME280;51113;53.646;-113.674;2022-09-24T05:14:19;93082.78;;;10.69;86.96
64687;BME280;51113;53.646;-113.674;2022-09-24T05:16:47;93089.94;;;10.69;86.53
64687;BME280;51113;53.646;-113.674;2022-09-24T05:19:17;93089.44;;;10.72;86.44
64687;BME280;51113;53.646;-113.674;2022-09-24T05:21:46;93093.44;;;10.74;85.73
64687;BME280;51113;53.646;-113.674;2022-09-24T05:24:15;93093.97;;;10.76;86.03
64687;BME280;51113;53.646;-113.674;2022-09-24T05:26:43;93094.75;;;10.77;85.55
64687;BME280;51113;53.646;-113.674;2022-09-24T05:29:30;93103.78;;;10.76;85.73
64687;BME280;51113;53.646;-113.674;2022-09-24T05:32:02;93100.59;;;10.74;86.06
64687;BME280;51113;53.646;-113.674;2022-09-24T05:34:33;93107.47;;;10.70;86.45
64687;BME280;51113;53.646;-113.674;2022-09-24T05:37:02;93105.09;;;10.73;85.70
64687;BME280;51113;53.646;-113.674;2022-09-24T05:39:31;93101.91;;;10.71;86.17
64687;BME280;51113;53.646;-113.674;2022-09-24T05:42:00;93106.94;;;10.68;84.74
64687;BME280;51113;53.646;-113.674;2022-09-24T05:44:32;93106.38;;;10.60;85.42
64687;BME280;51113;53.646;-113.674;2022-09-24T05:47:00;93108.78;;;10.62;86.23
64687;BME280;51113;53.646;-113.674;2022-09-24T05:49:29;93109.78;;;10.51;87.02
64687;BME280;51113;53.646;-113.674;2022-09-24T05:51:59;93109.78;;;10.51;86.32
64687;BME280;51113;53.646;-113.674;2022-09-24T05:54:28;93111.13;;;10.53;85.37
64687;BME280;51113;53.646;-113.674;2022-09-24T05:56:57;93115.91;;;10.56;85.36
64687;BME280;51113;53.646;-113.674;2022-09-24T05:59:26;93115.41;;;10.59;86.11
64687;BME280;51113;53.646;-113.674;2022-09-24T06:01:54;93119.91;;;10.59;84.81
64687;BME280;51113;53.646;-113.674;2022-09-24T06:04:23;93119.41;;;10.62;84.66
64687;BME280;51113;53.646;-113.674;2022-09-24T06:06:52;93127.56;;;10.50;85.44
64687;BME280;51113;53.646;-113.674;2022-09-24T06:09:20;93125.19;;;10.49;87.17
64687;BME280;51113;53.646;-113.674;2022-09-24T06:11:49;93125.44;;;10.47;87.57
64687;BME280;51113;53.646;-113.674;2022-09-24T06:14:20;93119.84;;;10.44;88.68
64687;BME280;51113;53.646;-113.674;2022-09-24T06:16:48;93130.38;;;10.34;87.49
64687;BME280;51113;53.646;-113.674;2022-09-24T06:19:17;93134.44;;;10.41;87.31
64687;BME280;51113;53.646;-113.674;2022-09-24T06:21:46;93138.88;;;10.36;88.02
64687;BME280;51113;53.646;-113.674;2022-09-24T06:24:15;93141.25;;;10.32;88.70
64687;BME280;51113;53.646;-113.674;2022-09-24T06:26:44;93132.41;;;10.21;89.37
64687;BME280;51113;53.646;-113.674;2022-09-24T06:29:13;93145.72;;;10.26;88.16
64687;BME280;51113;53.646;-113.674;2022-09-24T06:31:42;93136.13;;;10.20;89.19
64687;BME280;51113;53.646;-113.674;2022-09-24T06:34:12;93139.81;;;10.19;88.98
64687;BME280;51113;53.646;-113.674;2022-09-24T06:36:40;93138.78;;;10.20;87.65
64687;BME280;51113;53.646;-113.674;2022-09-24T06:39:09;93141.19;;;10.22;86.79
64687;BME280;51113;53.646;-113.674;2022-09-24T06:41:38;93141.97;;;10.22;88.24
64687;BME280;51113;53.646;-113.674;2022-09-24T06:44:06;93147.31;;;10.27;87.33
64687;BME280;51113;53.646;-113.674;2022-09-24T06:46:35;93145.22;;;10.29;86.25
64687;BME280;51113;53.646;-113.674;2022-09-24T06:49:03;93148.13;;;10.28;86.81
64687;BME280;51113;53.646;-113.674;2022-09-24T06:51:32;93145.50;;;10.33;84.18
64687;BME280;51113;53.646;-113.674;2022-09-24T06:54:00;93148.94;;;10.34;83.75
64687;BME280;51113;53.646;-113.674;2022-09-24T06:56:29;93148.75;;;10.40;82.75
64687;BME280;51113;53.646;-113.674;2022-09-24T06:58:57;93153.47;;;10.33;84.53
64687;BME280;51113;53.646;-113.674;2022-09-24T07:01:26;93146.53;;;10.27;85.09
64687;BME280;51113;53.646;-113.674;2022-09-24T07:03:55;93147.06;;;10.29;85.28
64687;BME280;51113;53.646;-113.674;2022-09-24T07:06:23;93144.41;;;10.29;83.85
64687;BME280;51113;53.646;-113.674;2022-09-24T07:08:52;93148.13;;;10.28;85.22
64687;BME280;51113;53.646;-113.674;2022-09-24T07:11:23;93150.28;;;10.36;82.68
64687;BME280;51113;53.646;-113.674;2022-09-24T07:13:52;93145.78;;;10.37;83.74
64687;BME280;51113;53.646;-113.674;2022-09-24T07:16:20;93144.97;;;10.36;82.98
64687;BME280;51113;53.646;-113.674;2022-09-24T07:18:49;93147.03;;;10.24;83.61
64687;BME280;51113;53.646;-113.674;2022-09-24T07:21:18;93151.56;;;10.28;83.49
64687;BME280;51113;53.646;-113.674;2022-09-24T07:23:46;93162.41;;;10.22;84.18
64687;BME280;51113;53.646;-113.674;2022-09-24T07:26:15;93161.03;;;10.19;83.89
64687;BME280;51113;53.646;-113.674;2022-09-24T07:28:44;93157.56;;;10.19;85.41
64687;BME280;51113;53.646;-113.674;2022-09-24T07:31:12;93160.72;;;10.11;82.60
64687;BME280;51113;53.646;-113.674;2022-09-24T07:33:41;93168.97;;;10.14;82.45
64687;BME280;51113;53.646;-113.674;2022-09-24T07:36:09;93167.56;;;10.07;83.69
64687;BME280;51113;53.646;-113.674;2022-09-24T07:38:38;93163.16;;;10.17;80.87
64687;BME280;51113;53.646;-113.674;2022-09-24T07:41:06;93161.25;;;10.13;82.91
64687;BME280;51113;53.646;-113.674;2022-09-24T07:43:36;93160.09;;;9.98;84.00
64687;BME280;51113;53.646;-113.674;2022-09-24T07:46:05;93162.94;;;9.92;85.19
64687;BME280;51113;53.646;-113.674;2022-09-24T07:48:34;93160.66;;;9.74;86.05
64687;BME280;51113;53.646;-113.674;2022-09-24T07:51:03;93166.31;;;9.82;83.23
64687;BME280;51113;53.646;-113.674;2022-09-24T07:53:33;93169.22;;;9.81;84.30
64687;BME280;51113;53.646;-113.674;2022-09-24T07:56:02;93172.69;;;9.81;85.00
64687;BME280;51113;53.646;-113.674;2022-09-24T07:58:31;93173.22;;;9.83;85.10
64687;BME280;51113;53.646;-113.674;2022-09-24T08:00:59;93181.19;;;9.83;86.32
64687;BME280;51113;53.646;-113.674;2022-09-24T08:03:28;93186.53;;;9.88;86.06
64687;BME280;51113;53.646;-113.674;2022-09-24T08:05:56;93184.16;;;9.92;86.73
64687;BME280;51113;53.646;-113.674;2022-09-24T08:08:27;93186.53;;;9.88;84.93
64687;BME280;51113;53.646;-113.674;2022-09-24T08:10:55;93193.19;;;9.91;84.34
64687;BME280;51113;53.646;-113.674;2022-09-24T08:13:23;93197.53;;;10.02;81.18
64687;BME280;51113;53.646;-113.674;2022-09-24T08:16:00;93194.41;;;10.10;80.43
64687;BME280;51113;53.646;-113.674;2022-09-24T08:18:31;93196.91;;;10.22;76.09
64687;BME280;51113;53.646;-113.674;2022-09-24T08:21:08;93201.75;;;10.30;77.36
64687;BME280;51113;53.646;-113.674;2022-09-24T08:23:39;93207.59;;;10.32;75.59
64687;BME280;51113;53.646;-113.674;2022-09-24T08:26:09;93209.50;;;10.37;77.13
64687;BME280;51113;53.646;-113.674;2022-09-24T08:28:39;93206.91;;;10.42;76.73
64687;BME280;51113;53.646;-113.674;2022-09-24T08:31:12;93209.41;;;10.26;79.17
64687;BME280;51113;53.646;-113.674;2022-09-24T08:33:41;93220.44;;;10.13;78.32
64687;BME280;51113;53.646;-113.674;2022-09-24T08:36:11;93209.53;;;10.10;78.68
64687;BME280;51113;53.646;-113.674;2022-09-24T08:38:39;93214.53;;;10.06;79.99
64687;BME280;51113;53.646;-113.674;2022-09-24T08:43:51;93227.75;;;10.01;77.23
64687;BME280;51113;53.646;-113.674;2022-09-24T08:49:27;93231.81;;;10.09;75.10
64687;BME280;51113;53.646;-113.674;2022-09-24T08:54:49;93242.91;;;10.06;79.30
64687;BME280;51113;53.646;-113.674;2022-09-24T08:57:19;93240.94;;;9.91;79.77
64687;BME280;51113;53.646;-113.674;2022-09-24T08:59:51;93242.28;;;9.93;79.31
64687;BME280;51113;53.646;-113.674;2022-09-24T09:11:07;93243.22;;;9.55;79.54
64687;BME280;51113;53.646;-113.674;2022-09-24T09:13:46;93251.44;;;9.32;81.00
64687;BME280;51113;53.646;-113.674;2022-09-24T09:16:23;93243.81;;;9.14;80.80
64687;BME280;51113;53.646;-113.674;2022-09-24T09:18:59;93245.63;;;8.91;81.96
64687;BME280;51113;53.646;-113.674;2022-09-24T09:21:38;93246.72;;;8.74;83.23
64687;BME280;51113;53.646;-113.674;2022-09-24T09:25:09;93242.31;;;8.62;83.85
64687;BME280;51113;53.646;-113.674;2022-09-24T09:27:18;93256.38;;;8.46;84.87
64687;BME280;51113;53.646;-113.674;2022-09-24T09:29:47;93255.19;;;8.37;83.71
64687;BME280;51113;53.646;-113.674;2022-09-24T09:35:14;93252.81;;;7.90;85.73
64687;BME280;51113;53.646;-113.674;2022-09-24T09:40:25;93261.41;;;7.69;87.79
64687;BME280;51113;53.646;-113.674;2022-09-24T09:43:03;93264.75;;;7.64;88.73
64687;BME280;51113;53.646;-113.674;2022-09-24T09:48:16;93250.25;;;7.67;86.94
64687;BME280;51113;53.646;-113.674;2022-09-24T09:50:49;93256.50;;;7.61;87.71
64687;BME280;51113;53.646;-113.674;2022-09-24T09:53:26;93253.91;;;7.49;88.41
64687;BME280;51113;53.646;-113.674;2022-09-24T09:56:06;93256.31;;;7.51;87.76
64687;BME280;51113;53.646;-113.674;2022-09-24T09:58:43;93253.00;;;7.43;87.83
64687;BME280;51113;53.646;-113.674;2022-09-24T10:01:15;93261.06;;;7.37;88.49
64687;BME280;51113;53.646;-113.674;2022-09-24T10:03:48;93264.66;;;7.31;87.77
64687;BME280;51113;53.646;-113.674;2022-09-24T10:06:28;93261.91;;;7.26;88.30
64687;BME280;51113;53.646;-113.674;2022-09-24T10:09:14;93258.72;;;7.12;88.74
64687;BME280;51113;53.646;-113.674;2022-09-24T10:11:43;93251.44;;;7.31;88.35
64687;BME280;51113;53.646;-113.674;2022-09-24T10:14:14;93259.28;;;7.26;88.74
64687;BME280;51113;53.646;-113.674;2022-09-24T10:16:44;93256.19;;;7.17;88.64
64687;BME280;51113;53.646;-113.674;2022-09-24T10:19:25;93261.00;;;7.20;89.50
64687;BME280;51113;53.646;-113.674;2022-09-24T10:21:55;93265.53;;;7.08;89.56
64687;BME280;51113;53.646;-113.674;2022-09-24T10:24:27;93277.59;;;6.92;91.10
64687;BME280;51113;53.646;-113.674;2022-09-24T10:26:57;93272.56;;;6.91;91.07
64687;BME280;51113;53.646;-113.674;2022-09-24T10:29:33;93282.28;;;7.02;91.30
64687;BME280;51113;53.646;-113.674;2022-09-24T10:32:22;93291.13;;;6.96;91.79
64687;BME280;51113;53.646;-113.674;2022-09-24T10:35:21;93292.41;;;6.93;92.46
64687;BME280;51113;53.646;-113.674;2022-09-24T10:37:57;93297.81;;;6.87;92.71
64687;BME280;51113;53.646;-113.674;2022-09-24T10:40:28;93295.28;;;6.92;92.71
64687;BME280;51113;53.646;-113.674;2022-09-24T10:43:02;93293.22;;;6.94;92.20
64687;BME280;51113;53.646;-113.674;2022-09-24T10:45:45;93295.03;;;6.93;92.21
64687;BME280;51113;53.646;-113.674;2022-09-24T10:48:25;93297.34;;;6.90;92.25
64687;BME280;51113;53.646;-113.674;2022-09-24T11:02:20;93311.59;;;6.54;94.45
64687;BME280;51113;53.646;-113.674;2022-09-24T11:04:58;93312.84;;;6.51;95.03
64687;BME280;51113;53.646;-113.674;2022-09-24T11:10:11;93312.28;;;6.61;95.07
64687;BME280;51113;53.646;-113.674;2022-09-24T11:13:06;93312.84;;;6.63;94.84
64687;BME280;51113;53.646;-113.674;2022-09-24T11:21:58;93332.69;;;6.89;94.62
64687;BME280;51113;53.646;-113.674;2022-09-24T11:24:56;93333.63;;;6.71;93.85
64687;BME280;51113;53.646;-113.674;2022-09-24T11:27:54;93337.19;;;6.65;94.14
64687;BME280;51113;53.646;-113.674;2022-09-24T11:30:34;93346.47;;;6.67;94.35
64687;BME280;51113;53.646;-113.674;2022-09-24T11:53:12;93350.81;;;6.97;90.99
64687;BME280;51113;53.646;-113.674;2022-09-24T11:55:51;93355.31;;;6.96;91.27
64687;BME280;51113;53.646;-113.674;2022-09-24T12:01:29;93354.38;;;7.02;90.75
64687;BME280;51113;53.646;-113.674;2022-09-24T12:04:01;93357.38;;;7.06;90.94
64687;BME280;51113;53.646;-113.674;2022-09-24T12:06:34;93354.25;;;7.09;91.35
64687;BME280;51113;53.646;-113.674;2022-09-24T12:09:26;93362.41;;;7.07;90.87
64687;BME280;51113;53.646;-113.674;2022-09-24T12:15:08;93361.47;;;7.25;90.68
64687;BME280;51113;53.646;-113.674;2022-09-24T12:17:41;93375.50;;;7.26;90.61
64687;BME280;51113;53.646;-113.674;2022-09-24T12:20:19;93364.22;;;7.30;90.00
64687;BME280;51113;53.646;-113.674;2022-09-24T12:22:52;93364.91;;;7.37;90.14
64687;BME280;51113;53.646;-113.674;2022-09-24T12:25:31;93373.06;;;7.36;90.06
64687;BME280;51113;53.646;-113.674;2022-09-24T12:28:00;93375.25;;;7.39;89.69
64687;BME280;51113;53.646;-113.674;2022-09-24T12:30:39;93377.19;;;7.43;89.43
64687;BME280;51113;53.646;-113.674;2022-09-24T12:36:25;93384.66;;;7.47;89.91
64687;BME280;51113;53.646;-113.674;2022-09-24T12:39:02;93380.28;;;7.40;90.09
64687;BME280;51113;53.646;-113.674;2022-09-24T12:41:36;93392.69;;;7.40;90.05
64687;BME280;51113;53.646;-113.674;2022-09-24T12:44:17;93405.22;;;7.45;89.88
64687;BME280;51113;53.646;-113.674;2022-09-24T12:46:57;93405.31;;;7.50;89.76
64687;BME280;51113;53.646;-113.674;2022-09-24T12:51:57;93416.94;;;7.37;90.20
64687;BME280;51113;53.646;-113.674;2022-09-24T12:54:33;93417.53;;;7.27;90.62
64687;BME280;51113;53.646;-113.674;2022-09-24T12:57:19;93414.75;;;7.34;90.31
64687;BME280;51113;53.646;-113.674;2022-09-24T12:59:58;93413.28;;;7.26;91.50
64687;BME280;51113;53.646;-113.674;2022-09-24T13:02:45;93416.94;;;7.14;91.66
64687;BME280;51113;53.646;-113.674;2022-09-24T13:10:56;93413.16;;;7.21;91.78
64687;BME280;51113;53.646;-113.674;2022-09-24T13:13:27;93419.47;;;7.20;92.33
64687;BME280;51113;53.646;-113.674;2022-09-24T13:16:14;93430.28;;;7.30;91.29
64687;BME280;51113;53.646;-113.674;2022-09-24T13:18:57;93428.53;;;7.36;91.09
64687;BME280;51113;53.646;-113.674;2022-09-24T13:21:28;93425.22;;;7.29;91.99
64687;BME280;51113;53.646;-113.674;2022-09-24T13:23:57;93439.22;;;7.29;92.32
64687;BME280;51113;53.646;-113.674;2022-09-24T13:29:04;93439.09;;;7.36;90.82
64687;BME280;51113;53.646;-113.674;2022-09-24T13:31:38;93441.63;;;7.42;90.62
64687;BME280;51113;53.646;-113.674;2022-09-24T13:44:50;93453.69;;;7.62;89.65
64687;BME280;51113;53.646;-113.674;2022-09-24T13:47:55;93465.38;;;7.66;88.52
64687;BME280;51113;53.646;-113.674;2022-09-24T13:50:54;93470.69;;;7.66;88.68
64687;BME280;51113;53.646;-113.674;2022-09-24T13:56:31;93483.06;;;7.77;87.86
64687;BME280;51113;53.646;-113.674;2022-09-24T13:59:10;93487.47;;;7.83;87.56
64687;BME280;51113;53.646;-113.674;2022-09-24T14:01:42;93489.41;;;7.88;87.31
64687;BME280;51113;53.646;-113.674;2022-09-24T14:04:21;93503.53;;;7.93;86.86
64687;BME280;51113;53.646;-113.674;2022-09-24T14:06:54;93499.03;;;8.05;85.97
64687;BME280;51113;53.646;-113.674;2022-09-24T14:09:35;93502.25;;;8.07;86.33
64687;BME280;51113;53.646;-113.674;2022-09-24T14:12:17;93502.69;;;8.16;85.99
64687;BME280;51113;53.646;-113.674;2022-09-24T14:14:54;93507.94;;;8.28;85.53
64687;BME280;51113;53.646;-113.674;2022-09-24T14:17:25;93520.34;;;8.51;83.75
64687;BME280;51113;53.646;-113.674;2022-09-24T14:19:55;93512.44;;;8.67;82.61
64687;BME280;51113;53.646;-113.674;2022-09-24T14:22:36;93512.47;;;8.84;81.32
64687;BME280;51113;53.646;-113.674;2022-09-24T14:25:16;93514.69;;;9.04;79.32
64687;BME280;51113;53.646;-113.674;2022-09-24T14:27:49;93523.66;;;9.03;79.61
64687;BME280;51113;53.646;-113.674;2022-09-24T14:30:21;93525.13;;;9.11;77.65
64687;BME280;51113;53.646;-113.674;2022-09-24T14:33:05;93534.19;;;9.15;77.57
64687;BME280;51113;53.646;-113.674;2022-09-24T14:35:38;93537.50;;;9.22;76.34
64687;BME280;51113;53.646;-113.674;2022-09-24T14:43:31;93559.59;;;9.44;74.53
64687;BME280;51113;53.646;-113.674;2022-09-24T14:46:07;93571.25;;;9.43;75.24
64687;BME280;51113;53.646;-113.674;2022-09-24T14:48:40;93577.19;;;9.50;74.76
64687;BME280;51113;53.646;-113.674;2022-09-24T14:51:27;93580.16;;;9.54;75.58
64687;BME280;51113;53.646;-113.674;2022-09-24T14:54:00;93578.56;;;9.70;74.03
64687;BME280;51113;53.646;-113.674;2022-09-24T14:56:31;93581.00;;;10.43;67.38
64687;BME280;51113;53.646;-113.674;2022-09-24T14:59:00;93588.78;;;10.72;65.36
64687;BME280;51113;53.646;-113.674;2022-09-24T15:01:30;93593.78;;;10.68;65.62
64687;BME280;51113;53.646;-113.674;2022-09-24T15:04:03;93602.91;;;10.99;64.02
64687;BME280;51113;53.646;-113.674;2022-09-24T15:06:34;93615.38;;;11.20;62.58
64687;BME280;51113;53.646;-113.674;2022-09-24T15:09:14;93608.50;;;11.24;62.50